Favola — IBFH — position and weather

sailwx.info

Track history (hours):
 
Tides and Currents Weather Stations Pressure Air Temp Water Temp Dewpoint Dewpoint Depression Visibility Wind Speed Wind Dir Waves Ship Positions

Favola

Last reported at 2014-Aug-14 19:33 UTC. Time now 2014-Aug-21 10:12 UTC.
Position N 40°58' E 028°60'.

Length 180 m; draft 7.2 m.

Type: Ship. MMSI: 247069800.

Date/timePositionNaut miles runAvg speedWind from/ knotsBaromVisibWave heightAir tempDewpointWater temp
2014-Aug-14 19:33N 40°58' E 028°60'10 0.7
2014-Aug-14 05:33N 40°52' E 028°50'175 6.3
2014-Aug-13 01:32N 39°18' E 025°36'29 9.5
2014-Aug-12 22:29N 38°53' E 025°18'9 9.6
2014-Aug-12 21:33N 38°45' E 025°12'67 9.3
2014-Aug-12 14:24N 37°49' E 024°27'7 8.4
2014-Aug-12 13:32N 37°46' E 024°19'27 8.0
2014-Aug-12 10:11N 37°36' E 023°47'6 9.3
2014-Aug-12 09:33N 37°40' E 023°42'1010.2
2014-Aug-12 08:33N 37°49' E 023°37'8 8.4
2014-Aug-12 07:33N 37°57' E 023°34'5 4.4
2014-Aug-12 06:31N 38°01' E 023°31'0 0.0
2014-Aug-12 05:28N 38°01' E 023°31'0 0.0
2014-Aug-12 01:04N 38°01' E 023°31'0 0.1
2014-Aug-11 22:22N 38°01' E 023°31'1 1.1
2014-Aug-11 21:33N 38°02' E 023°31'0 0.0
2014-Aug-11 20:33N 38°02' E 023°31'0 0.0
2014-Aug-11 19:33N 38°02' E 023°31'0 0.0
2014-Aug-11 18:33N 38°02' E 023°31'0 0.0
2014-Aug-11 17:33N 38°02' E 023°31'0 0.0
2014-Aug-11 16:33N 38°02' E 023°31'0 0.0
2014-Aug-11 15:33N 38°02' E 023°31'0 0.0
2014-Aug-11 14:33N 38°02' E 023°31'0 0.0
2014-Aug-11 13:33N 38°02' E 023°31'0 0.0
2014-Aug-11 12:33N 38°02' E 023°31'0 0.0
2014-Aug-11 11:27N 38°02' E 023°31'0 0.0
2014-Aug-11 10:33N 38°02' E 023°31'0 0.0
2014-Aug-11 09:33N 38°02' E 023°31'0 0.0
2014-Aug-11 08:33N 38°02' E 023°31'0 0.0
2014-Aug-11 07:33N 38°02' E 023°31'0 0.0
2014-Aug-11 06:33N 38°02' E 023°31'0 0.0
2014-Aug-11 05:33N 38°02' E 023°31'0 0.0
2014-Aug-11 04:33N 38°02' E 023°31'0 0.0
2014-Aug-11 03:30N 38°02' E 023°31'0 0.0
2014-Aug-11 02:27N 38°02' E 023°31'0 0.0
2014-Aug-11 01:33N 38°02' E 023°31'0 0.0
2014-Aug-11 00:33N 38°02' E 023°31'0 0.0
2014-Aug-10 23:33N 38°02' E 023°31'0 0.0
2014-Aug-10 22:33N 38°02' E 023°31'0 0.0
2014-Aug-10 21:33N 38°02' E 023°31'0 0.0
2014-Aug-10 20:33N 38°02' E 023°31'0 0.0
2014-Aug-10 19:33N 38°02' E 023°31'0 0.0
2014-Aug-10 18:33N 38°02' E 023°31'0 0.0
2014-Aug-10 17:27N 38°02' E 023°31'0 0.0
2014-Aug-10 16:33N 38°02' E 023°31'0 0.0
2014-Aug-10 15:33N 38°02' E 023°31'0 0.0
2014-Aug-10 14:33N 38°02' E 023°31'0 0.0
2014-Aug-10 13:32N 38°02' E 023°31'0 0.0
2014-Aug-10 12:32N 38°02' E 023°31'0 0.0
2014-Aug-10 11:32N 38°02' E 023°31'0 0.0
2014-Aug-10 10:32N 38°02' E 023°31'0 0.0
2014-Aug-10 09:32N 38°02' E 023°31'0 0.0
2014-Aug-10 08:32N 38°02' E 023°31'0 0.0
2014-Aug-10 07:32N 38°02' E 023°31'0 0.0
2014-Aug-10 06:32N 38°02' E 023°31'0 0.0
2014-Aug-10 05:32N 38°02' E 023°31'0 0.0
2014-Aug-10 04:32N 38°02' E 023°31'0 0.0
2014-Aug-10 03:32N 38°02' E 023°31'0 0.0
2014-Aug-10 02:32N 38°02' E 023°31'0 0.0
2014-Aug-10 01:32N 38°02' E 023°31'0 0.0
2014-Aug-10 00:32N 38°02' E 023°31'0 0.0
2014-Aug-09 23:32N 38°02' E 023°31'0 0.0
2014-Aug-09 22:29N 38°02' E 023°31'0 0.0
2014-Aug-09 21:32N 38°02' E 023°31'0 0.0
2014-Aug-09 20:32N 38°02' E 023°31'0 0.0
2014-Aug-09 19:32N 38°02' E 023°31'0 0.0
2014-Aug-09 18:32N 38°02' E 023°31'0 0.0
2014-Aug-09 17:32N 38°02' E 023°31'1 1.3
2014-Aug-09 16:28N 38°01' E 023°32'7 7.6
2014-Aug-09 15:34N 37°55' E 023°37'8 8.4
2014-Aug-09 14:33N 37°48' E 023°41'1212.3
2014-Aug-09 13:33N 37°36' E 023°47'2412.1
2014-Aug-09 11:34N 37°13' E 023°38'3712.1
2014-Aug-09 08:31N 36°38' E 023°27'38510.7
2014-Aug-07 20:33N 35°49' E 015°33'1211.6
2014-Aug-07 19:33N 35°49' E 015°19'1211.5
2014-Aug-07 18:33N 35°48' E 015°05'1111.6
2014-Aug-07 17:34N 35°48' E 014°51'1 0.9
2014-Aug-07 16:32N 35°48' E 014°50'0 0.1
2014-Aug-07 15:17N 35°48' E 014°50'0 0.0
2014-Aug-07 14:26N 35°48' E 014°50'0 0.0
2014-Aug-07 13:32N 35°48' E 014°50'0 0.0
2014-Aug-07 12:32N 35°48' E 014°50'0 0.0
2014-Aug-07 11:32N 35°48' E 014°50'0 0.0
2014-Aug-07 10:32N 35°48' E 014°50'0 0.0
2014-Aug-07 09:32N 35°48' E 014°50'0 0.0
2014-Aug-07 08:32N 35°48' E 014°50'0 0.0
2014-Aug-07 07:32N 35°48' E 014°50'0 0.0
2014-Aug-07 06:32N 35°48' E 014°50'0 0.0
2014-Aug-06 22:28N 35°48' E 014°50'0 0.0
2014-Aug-06 17:31N 35°48' E 014°50'0 0.1
2014-Aug-06 16:31N 35°48' E 014°50'0 0.0
2014-Aug-06 15:31N 35°48' E 014°50'0 0.0
2014-Aug-06 14:31N 35°48' E 014°50'0 0.0
2014-Aug-06 13:31N 35°48' E 014°50'0 0.1
2014-Aug-06 12:31N 35°48' E 014°49'0 0.0
2014-Aug-06 11:31N 35°48' E 014°49'0 0.0
2014-Aug-06 10:25N 35°48' E 014°49'0 0.0
2014-Aug-06 09:31N 35°48' E 014°49'0 0.0
2014-Aug-06 08:31N 35°48' E 014°49'0 0.0
2014-Aug-06 07:31N 35°48' E 014°49'0 0.0
2014-Aug-06 06:31N 35°48' E 014°49'0 0.0
2014-Aug-06 05:28N 35°48' E 014°49'0 0.0
2014-Aug-06 04:31N 35°48' E 014°49'0 0.0
2014-Aug-06 03:31N 35°48' E 014°49'0 0.0
2014-Aug-06 02:31N 35°48' E 014°49'0 0.0
2014-Aug-06 01:22N 35°48' E 014°49'0 0.0
2014-Aug-06 00:28N 35°48' E 014°49'0 0.0
2014-Aug-05 23:28N 35°48' E 014°49'0 0.0
2014-Aug-05 22:31N 35°48' E 014°49'0 0.0
2014-Aug-05 21:31N 35°48' E 014°49'0 0.0
2014-Aug-05 20:28N 35°48' E 014°49'0 0.0
2014-Aug-05 19:31N 35°48' E 014°50'0 0.0
2014-Aug-05 18:31N 35°48' E 014°50'0 0.0
2014-Aug-05 17:31N 35°48' E 014°50'0 0.1
2014-Aug-05 16:22N 35°48' E 014°50'0 0.1
2014-Aug-05 15:31N 35°49' E 014°50'0 0.1
2014-Aug-05 14:28N 35°49' E 014°49'0 0.0
2014-Aug-05 13:31N 35°48' E 014°49'0 0.0
2014-Aug-05 12:31N 35°48' E 014°49'0 0.0
2014-Aug-05 11:34N 35°48' E 014°49'0 0.0
2014-Aug-05 10:33N 35°48' E 014°49'0 0.0
2014-Aug-05 09:33N 35°48' E 014°49'0 0.0
2014-Aug-05 08:30N 35°48' E 014°49'0 0.0
2014-Aug-05 05:30N 35°48' E 014°49'0 0.0
2014-Aug-05 04:27N 35°48' E 014°49'0 0.0
2014-Aug-05 03:21N 35°48' E 014°49'0 0.0
2014-Aug-05 02:33N 35°48' E 014°49'0 0.0
2014-Aug-05 01:33N 35°48' E 014°49'0 0.0
2014-Aug-05 00:33N 35°48' E 014°50'0 0.0
2014-Aug-04 23:33N 35°48' E 014°50'0 0.0
2014-Aug-04 22:33N 35°48' E 014°50'0 0.0
2014-Aug-04 21:33N 35°48' E 014°50'0 0.0
2014-Aug-04 20:33N 35°48' E 014°50'  
Track history (hours):
 
Tides and Currents Weather Stations Pressure Air Temp Water Temp Dewpoint Dewpoint Depression Visibility Wind Speed Wind Dir Waves Ship Positions

Favola

Last reported at 2014-Aug-14 19:33 UTC. Time now 2014-Aug-21 10:12 UTC.
Position N 40°58' E 028°60'.

Length 180 m; draft 7.2 m.

Type: Ship. MMSI: 247069800.

Date/timePositionNaut miles runAvg speedWind from/ knotsBaromVisibWave heightAir tempDewpointWater temp
2014-Aug-14 19:33N 40°58' E 028°60'10 0.7
2014-Aug-14 05:33N 40°52' E 028°50'175 6.3
2014-Aug-13 01:32N 39°18' E 025°36'29 9.5
2014-Aug-12 22:29N 38°53' E 025°18'9 9.6
2014-Aug-12 21:33N 38°45' E 025°12'67 9.3
2014-Aug-12 14:24N 37°49' E 024°27'7 8.4
2014-Aug-12 13:32N 37°46' E 024°19'27 8.0
2014-Aug-12 10:11N 37°36' E 023°47'6 9.3
2014-Aug-12 09:33N 37°40' E 023°42'1010.2
2014-Aug-12 08:33N 37°49' E 023°37'8 8.4
2014-Aug-12 07:33N 37°57' E 023°34'5 4.4
2014-Aug-12 06:31N 38°01' E 023°31'0 0.0
2014-Aug-12 05:28N 38°01' E 023°31'0 0.0
2014-Aug-12 01:04N 38°01' E 023°31'0 0.1
2014-Aug-11 22:22N 38°01' E 023°31'1 1.1
2014-Aug-11 21:33N 38°02' E 023°31'0 0.0
2014-Aug-11 20:33N 38°02' E 023°31'0 0.0
2014-Aug-11 19:33N 38°02' E 023°31'0 0.0
2014-Aug-11 18:33N 38°02' E 023°31'0 0.0
2014-Aug-11 17:33N 38°02' E 023°31'0 0.0
2014-Aug-11 16:33N 38°02' E 023°31'0 0.0
2014-Aug-11 15:33N 38°02' E 023°31'0 0.0
2014-Aug-11 14:33N 38°02' E 023°31'0 0.0
2014-Aug-11 13:33N 38°02' E 023°31'0 0.0
2014-Aug-11 12:33N 38°02' E 023°31'0 0.0
2014-Aug-11 11:27N 38°02' E 023°31'0 0.0
2014-Aug-11 10:33N 38°02' E 023°31'0 0.0
2014-Aug-11 09:33N 38°02' E 023°31'0 0.0
2014-Aug-11 08:33N 38°02' E 023°31'0 0.0
2014-Aug-11 07:33N 38°02' E 023°31'0 0.0
2014-Aug-11 06:33N 38°02' E 023°31'0 0.0
2014-Aug-11 05:33N 38°02' E 023°31'0 0.0
2014-Aug-11 04:33N 38°02' E 023°31'0 0.0
2014-Aug-11 03:30N 38°02' E 023°31'0 0.0
2014-Aug-11 02:27N 38°02' E 023°31'0 0.0
2014-Aug-11 01:33N 38°02' E 023°31'0 0.0
2014-Aug-11 00:33N 38°02' E 023°31'0 0.0
2014-Aug-10 23:33N 38°02' E 023°31'0 0.0
2014-Aug-10 22:33N 38°02' E 023°31'0 0.0
2014-Aug-10 21:33N 38°02' E 023°31'0 0.0
2014-Aug-10 20:33N 38°02' E 023°31'0 0.0
2014-Aug-10 19:33N 38°02' E 023°31'0 0.0
2014-Aug-10 18:33N 38°02' E 023°31'0 0.0
2014-Aug-10 17:27N 38°02' E 023°31'0 0.0
2014-Aug-10 16:33N 38°02' E 023°31'0 0.0
2014-Aug-10 15:33N 38°02' E 023°31'0 0.0
2014-Aug-10 14:33N 38°02' E 023°31'0 0.0
2014-Aug-10 13:32N 38°02' E 023°31'0 0.0
2014-Aug-10 12:32N 38°02' E 023°31'0 0.0
2014-Aug-10 11:32N 38°02' E 023°31'0 0.0
2014-Aug-10 10:32N 38°02' E 023°31'0 0.0
2014-Aug-10 09:32N 38°02' E 023°31'0 0.0
2014-Aug-10 08:32N 38°02' E 023°31'0 0.0
2014-Aug-10 07:32N 38°02' E 023°31'0 0.0
2014-Aug-10 06:32N 38°02' E 023°31'0 0.0
2014-Aug-10 05:32N 38°02' E 023°31'0 0.0
2014-Aug-10 04:32N 38°02' E 023°31'0 0.0
2014-Aug-10 03:32N 38°02' E 023°31'0 0.0
2014-Aug-10 02:32N 38°02' E 023°31'0 0.0
2014-Aug-10 01:32N 38°02' E 023°31'0 0.0
2014-Aug-10 00:32N 38°02' E 023°31'0 0.0
2014-Aug-09 23:32N 38°02' E 023°31'0 0.0
2014-Aug-09 22:29N 38°02' E 023°31'0 0.0
2014-Aug-09 21:32N 38°02' E 023°31'0 0.0
2014-Aug-09 20:32N 38°02' E 023°31'0 0.0
2014-Aug-09 19:32N 38°02' E 023°31'0 0.0
2014-Aug-09 18:32N 38°02' E 023°31'0 0.0
2014-Aug-09 17:32N 38°02' E 023°31'1 1.3
2014-Aug-09 16:28N 38°01' E 023°32'7 7.6
2014-Aug-09 15:34N 37°55' E 023°37'8 8.4
2014-Aug-09 14:33N 37°48' E 023°41'1212.3
2014-Aug-09 13:33N 37°36' E 023°47'2412.1
2014-Aug-09 11:34N 37°13' E 023°38'3712.1
2014-Aug-09 08:31N 36°38' E 023°27'38510.7
2014-Aug-07 20:33N 35°49' E 015°33'1211.6
2014-Aug-07 19:33N 35°49' E 015°19'1211.5
2014-Aug-07 18:33N 35°48' E 015°05'1111.6
2014-Aug-07 17:34N 35°48' E 014°51'1 0.9
2014-Aug-07 16:32N 35°48' E 014°50'0 0.1
2014-Aug-07 15:17N 35°48' E 014°50'0 0.0
2014-Aug-07 14:26N 35°48' E 014°50'0 0.0
2014-Aug-07 13:32N 35°48' E 014°50'0 0.0
2014-Aug-07 12:32N 35°48' E 014°50'0 0.0
2014-Aug-07 11:32N 35°48' E 014°50'0 0.0
2014-Aug-07 10:32N 35°48' E 014°50'0 0.0
2014-Aug-07 09:32N 35°48' E 014°50'0 0.0
2014-Aug-07 08:32N 35°48' E 014°50'0 0.0
2014-Aug-07 07:32N 35°48' E 014°50'0 0.0
2014-Aug-07 06:32N 35°48' E 014°50'0 0.0
2014-Aug-06 22:28N 35°48' E 014°50'0 0.0
2014-Aug-06 17:31N 35°48' E 014°50'0 0.1
2014-Aug-06 16:31N 35°48' E 014°50'0 0.0
2014-Aug-06 15:31N 35°48' E 014°50'0 0.0
2014-Aug-06 14:31N 35°48' E 014°50'0 0.0
2014-Aug-06 13:31N 35°48' E 014°50'0 0.1
2014-Aug-06 12:31N 35°48' E 014°49'0 0.0
2014-Aug-06 11:31N 35°48' E 014°49'0 0.0
2014-Aug-06 10:25N 35°48' E 014°49'0 0.0
2014-Aug-06 09:31N 35°48' E 014°49'0 0.0
2014-Aug-06 08:31N 35°48' E 014°49'0 0.0
2014-Aug-06 07:31N 35°48' E 014°49'0 0.0
2014-Aug-06 06:31N 35°48' E 014°49'0 0.0
2014-Aug-06 05:28N 35°48' E 014°49'0 0.0
2014-Aug-06 04:31N 35°48' E 014°49'0 0.0
2014-Aug-06 03:31N 35°48' E 014°49'0 0.0
2014-Aug-06 02:31N 35°48' E 014°49'0 0.0
2014-Aug-06 01:22N 35°48' E 014°49'0 0.0
2014-Aug-06 00:28N 35°48' E 014°49'0 0.0
2014-Aug-05 23:28N 35°48' E 014°49'0 0.0
2014-Aug-05 22:31N 35°48' E 014°49'0 0.0
2014-Aug-05 21:31N 35°48' E 014°49'0 0.0
2014-Aug-05 20:28N 35°48' E 014°49'0 0.0
2014-Aug-05 19:31N 35°48' E 014°50'0 0.0
2014-Aug-05 18:31N 35°48' E 014°50'0 0.0
2014-Aug-05 17:31N 35°48' E 014°50'0 0.1
2014-Aug-05 16:22N 35°48' E 014°50'0 0.1
2014-Aug-05 15:31N 35°49' E 014°50'0 0.1
2014-Aug-05 14:28N 35°49' E 014°49'0 0.0
2014-Aug-05 13:31N 35°48' E 014°49'0 0.0
2014-Aug-05 12:31N 35°48' E 014°49'0 0.0
2014-Aug-05 11:34N 35°48' E 014°49'0 0.0
2014-Aug-05 10:33N 35°48' E 014°49'0 0.0
2014-Aug-05 09:33N 35°48' E 014°49'0 0.0
2014-Aug-05 08:30N 35°48' E 014°49'0 0.0
2014-Aug-05 05:30N 35°48' E 014°49'0 0.0
2014-Aug-05 04:27N 35°48' E 014°49'0 0.0
2014-Aug-05 03:21N 35°48' E 014°49'0 0.0
2014-Aug-05 02:33N 35°48' E 014°49'0 0.0
2014-Aug-05 01:33N 35°48' E 014°49'0 0.0
2014-Aug-05 00:33N 35°48' E 014°50'0 0.0
2014-Aug-04 23:33N 35°48' E 014°50'0 0.0
2014-Aug-04 22:33N 35°48' E 014°50'0 0.0
2014-Aug-04 21:33N 35°48' E 014°50'0 0.0
2014-Aug-04 20:33N 35°48' E 014°50'  

Dump ship's entire track history